sensor_id;sensor_type;location;lat;lon;timestamp;P1;durP1;ratioP1;P2;durP2;ratioP2
28176;SDS011;15461;41.652;9.378;2023-11-25T00:01:01;1.30;;;1.10;;
28176;SDS011;15461;41.652;9.378;2023-11-25T00:03:27;2.25;;;1.27;;
28176;SDS011;15461;41.652;9.378;2023-11-25T00:05:53;2.22;;;1.20;;
28176;SDS011;15461;41.652;9.378;2023-11-25T00:08:19;2.63;;;1.23;;
28176;SDS011;15461;41.652;9.378;2023-11-25T00:10:46;1.80;;;1.33;;
28176;SDS011;15461;41.652;9.378;2023-11-25T00:13:12;3.17;;;1.42;;
28176;SDS011;15461;41.652;9.378;2023-11-25T00:15:40;2.65;;;1.30;;
28176;SDS011;15461;41.652;9.378;2023-11-25T00:18:06;5.05;;;1.75;;
28176;SDS011;15461;41.652;9.378;2023-11-25T00:20:33;2.60;;;1.48;;
28176;SDS011;15461;41.652;9.378;2023-11-25T00:23:02;3.50;;;1.15;;
28176;SDS011;15461;41.652;9.378;2023-11-25T00:25:28;1.63;;;1.23;;
28176;SDS011;15461;41.652;9.378;2023-11-25T00:27:54;2.00;;;1.40;;
28176;SDS011;15461;41.652;9.378;2023-11-25T00:30:20;2.38;;;1.63;;
28176;SDS011;15461;41.652;9.378;2023-11-25T00:32:46;1.52;;;1.42;;
28176;SDS011;15461;41.652;9.378;2023-11-25T00:35:12;1.63;;;1.42;;
28176;SDS011;15461;41.652;9.378;2023-11-25T00:37:39;2.80;;;1.58;;
28176;SDS011;15461;41.652;9.378;2023-11-25T00:40:06;2.15;;;1.67;;
28176;SDS011;15461;41.652;9.378;2023-11-25T00:42:36;1.85;;;1.42;;
28176;SDS011;15461;41.652;9.378;2023-11-25T00:45:04;7.13;;;2.42;;
28176;SDS011;15461;41.652;9.378;2023-11-25T00:47:31;1.45;;;1.20;;
28176;SDS011;15461;41.652;9.378;2023-11-25T00:49:57;2.13;;;1.60;;
28176;SDS011;15461;41.652;9.378;2023-11-25T00:52:22;1.77;;;1.20;;
28176;SDS011;15461;41.652;9.378;2023-11-25T00:54:48;2.30;;;1.45;;
28176;SDS011;15461;41.652;9.378;2023-11-25T00:57:14;2.33;;;1.40;;
28176;SDS011;15461;41.652;9.378;2023-11-25T00:59:40;1.55;;;1.35;;
28176;SDS011;15461;41.652;9.378;2023-11-25T01:02:06;1.48;;;1.30;;
28176;SDS011;15461;41.652;9.378;2023-11-25T01:04:31;2.33;;;1.35;;
28176;SDS011;15461;41.652;9.378;2023-11-25T01:06:57;4.70;;;1.58;;
28176;SDS011;15461;41.652;9.378;2023-11-25T01:09:23;1.35;;;1.10;;
28176;SDS011;15461;41.652;9.378;2023-11-25T01:11:51;3.70;;;1.25;;
28176;SDS011;15461;41.652;9.378;2023-11-25T01:14:19;2.05;;;1.48;;
28176;SDS011;15461;41.652;9.378;2023-11-25T01:16:45;1.38;;;1.05;;
28176;SDS011;15461;41.652;9.378;2023-11-25T01:19:10;1.20;;;1.10;;
28176;SDS011;15461;41.652;9.378;2023-11-25T01:21:36;1.65;;;1.10;;
28176;SDS011;15461;41.652;9.378;2023-11-25T01:24:02;1.75;;;1.20;;
28176;SDS011;15461;41.652;9.378;2023-11-25T01:26:28;2.15;;;1.33;;
28176;SDS011;15461;41.652;9.378;2023-11-25T01:28:53;1.13;;;1.02;;
28176;SDS011;15461;41.652;9.378;2023-11-25T01:31:19;2.47;;;1.35;;
28176;SDS011;15461;41.652;9.378;2023-11-25T01:33:45;1.40;;;1.30;;
28176;SDS011;15461;41.652;9.378;2023-11-25T01:36:12;1.35;;;1.13;;
28176;SDS011;15461;41.652;9.378;2023-11-25T01:38:38;1.42;;;1.10;;
28176;SDS011;15461;41.652;9.378;2023-11-25T01:41:04;2.08;;;1.00;;
28176;SDS011;15461;41.652;9.378;2023-11-25T01:43:31;5.15;;;1.30;;
28176;SDS011;15461;41.652;9.378;2023-11-25T01:45:58;1.52;;;0.90;;
28176;SDS011;15461;41.652;9.378;2023-11-25T01:48:27;4.97;;;1.55;;
28176;SDS011;15461;41.652;9.378;2023-11-25T01:50:56;3.78;;;1.15;;
28176;SDS011;15461;41.652;9.378;2023-11-25T01:53:24;2.15;;;0.98;;
28176;SDS011;15461;41.652;9.378;2023-11-25T01:55:51;6.72;;;1.23;;
28176;SDS011;15461;41.652;9.378;2023-11-25T01:58:19;5.32;;;1.10;;
28176;SDS011;15461;41.652;9.378;2023-11-25T02:00:48;5.15;;;1.30;;
28176;SDS011;15461;41.652;9.378;2023-11-25T02:03:15;4.13;;;0.82;;
28176;SDS011;15461;41.652;9.378;2023-11-25T02:05:44;6.78;;;1.60;;
28176;SDS011;15461;41.652;9.378;2023-11-25T02:08:10;4.72;;;1.30;;
28176;SDS011;15461;41.652;9.378;2023-11-25T02:10:37;2.22;;;1.20;;
28176;SDS011;15461;41.652;9.378;2023-11-25T02:13:06;2.97;;;1.10;;
28176;SDS011;15461;41.652;9.378;2023-11-25T02:15:35;4.53;;;1.30;;
28176;SDS011;15461;41.652;9.378;2023-11-25T02:18:02;2.67;;;1.00;;
28176;SDS011;15461;41.652;9.378;2023-11-25T02:20:34;3.50;;;1.38;;
28176;SDS011;15461;41.652;9.378;2023-11-25T02:23:02;2.13;;;1.10;;
28176;SDS011;15461;41.652;9.378;2023-11-25T02:25:29;2.92;;;1.33;;
28176;SDS011;15461;41.652;9.378;2023-11-25T02:27:55;1.30;;;0.98;;
28176;SDS011;15461;41.652;9.378;2023-11-25T02:30:24;5.75;;;1.35;;
28176;SDS011;15461;41.652;9.378;2023-11-25T02:32:50;7.30;;;1.58;;
28176;SDS011;15461;41.652;9.378;2023-11-25T02:35:17;4.88;;;0.75;;
28176;SDS011;15461;41.652;9.378;2023-11-25T02:37:46;4.78;;;0.90;;
28176;SDS011;15461;41.652;9.378;2023-11-25T02:40:12;5.82;;;1.38;;
28176;SDS011;15461;41.652;9.378;2023-11-25T02:42:44;2.58;;;1.02;;
28176;SDS011;15461;41.652;9.378;2023-11-25T02:45:17;4.55;;;1.48;;
28176;SDS011;15461;41.652;9.378;2023-11-25T02:47:47;2.78;;;1.10;;
28176;SDS011;15461;41.652;9.378;2023-11-25T02:50:14;3.00;;;1.35;;
28176;SDS011;15461;41.652;9.378;2023-11-25T02:52:40;4.85;;;0.95;;
28176;SDS011;15461;41.652;9.378;2023-11-25T02:55:07;5.75;;;1.80;;
28176;SDS011;15461;41.652;9.378;2023-11-25T02:57:39;6.00;;;1.52;;
28176;SDS011;15461;41.652;9.378;2023-11-25T03:00:15;5.63;;;1.13;;
28176;SDS011;15461;41.652;9.378;2023-11-25T03:03:01;2.77;;;1.10;;
28176;SDS011;15461;41.652;9.378;2023-11-25T03:05:42;2.47;;;1.30;;
28176;SDS011;15461;41.652;9.378;2023-11-25T03:08:15;5.57;;;1.10;;
28176;SDS011;15461;41.652;9.378;2023-11-25T03:10:42;3.17;;;1.40;;
28176;SDS011;15461;41.652;9.378;2023-11-25T03:13:09;3.28;;;1.33;;
28176;SDS011;15461;41.652;9.378;2023-11-25T03:15:36;2.35;;;1.17;;
28176;SDS011;15461;41.652;9.378;2023-11-25T03:18:03;2.97;;;1.08;;
28176;SDS011;15461;41.652;9.378;2023-11-25T03:20:31;2.60;;;0.95;;
28176;SDS011;15461;41.652;9.378;2023-11-25T03:23:00;2.97;;;0.88;;
28176;SDS011;15461;41.652;9.378;2023-11-25T03:25:28;3.50;;;1.45;;
28176;SDS011;15461;41.652;9.378;2023-11-25T03:27:56;2.53;;;1.10;;
28176;SDS011;15461;41.652;9.378;2023-11-25T03:30:23;3.17;;;1.23;;
28176;SDS011;15461;41.652;9.378;2023-11-25T03:32:49;3.78;;;1.20;;
28176;SDS011;15461;41.652;9.378;2023-11-25T03:35:15;2.70;;;0.98;;
28176;SDS011;15461;41.652;9.378;2023-11-25T03:37:41;2.75;;;1.25;;
28176;SDS011;15461;41.652;9.378;2023-11-25T03:40:08;1.42;;;0.98;;
28176;SDS011;15461;41.652;9.378;2023-11-25T03:42:39;3.50;;;1.05;;
28176;SDS011;15461;41.652;9.378;2023-11-25T03:45:05;7.05;;;1.25;;
28176;SDS011;15461;41.652;9.378;2023-11-25T03:47:35;3.83;;;1.00;;
28176;SDS011;15461;41.652;9.378;2023-11-25T03:50:01;4.80;;;1.48;;
28176;SDS011;15461;41.652;9.378;2023-11-25T03:52:27;4.13;;;1.38;;
28176;SDS011;15461;41.652;9.378;2023-11-25T03:54:53;1.58;;;1.00;;
28176;SDS011;15461;41.652;9.378;2023-11-25T03:57:19;2.55;;;1.10;;
28176;SDS011;15461;41.652;9.378;2023-11-25T03:59:46;2.13;;;1.00;;
28176;SDS011;15461;41.652;9.378;2023-11-25T04:02:13;4.53;;;1.02;;
28176;SDS011;15461;41.652;9.378;2023-11-25T04:04:38;4.43;;;1.17;;
28176;SDS011;15461;41.652;9.378;2023-11-25T04:07:04;3.60;;;1.35;;
28176;SDS011;15461;41.652;9.378;2023-11-25T04:09:30;3.03;;;1.42;;
28176;SDS011;15461;41.652;9.378;2023-11-25T04:11:57;2.63;;;1.10;;
28176;SDS011;15461;41.652;9.378;2023-11-25T04:14:23;4.57;;;1.65;;
28176;SDS011;15461;41.652;9.378;2023-11-25T04:16:51;2.67;;;1.27;;
28176;SDS011;15461;41.652;9.378;2023-11-25T04:19:16;3.55;;;1.00;;
28176;SDS011;15461;41.652;9.378;2023-11-25T04:21:42;3.08;;;1.33;;
28176;SDS011;15461;41.652;9.378;2023-11-25T04:24:11;3.78;;;1.23;;
28176;SDS011;15461;41.652;9.378;2023-11-25T04:26:37;3.30;;;1.23;;
28176;SDS011;15461;41.652;9.378;2023-11-25T04:29:06;3.03;;;1.33;;
28176;SDS011;15461;41.652;9.378;2023-11-25T04:31:32;3.50;;;1.10;;
28176;SDS011;15461;41.652;9.378;2023-11-25T04:33:58;1.67;;;0.90;;
28176;SDS011;15461;41.652;9.378;2023-11-25T04:36:23;4.45;;;1.45;;
28176;SDS011;15461;41.652;9.378;2023-11-25T04:38:49;4.07;;;1.02;;
28176;SDS011;15461;41.652;9.378;2023-11-25T04:41:15;8.23;;;1.52;;
28176;SDS011;15461;41.652;9.378;2023-11-25T04:43:41;4.57;;;1.08;;
28176;SDS011;15461;41.652;9.378;2023-11-25T04:46:10;2.22;;;0.95;;
28176;SDS011;15461;41.652;9.378;2023-11-25T04:48:36;5.03;;;0.60;;
28176;SDS011;15461;41.652;9.378;2023-11-25T04:51:03;3.72;;;0.77;;
28176;SDS011;15461;41.652;9.378;2023-11-25T04:53:29;2.75;;;0.88;;
28176;SDS011;15461;41.652;9.378;2023-11-25T04:55:55;1.13;;;0.50;;
28176;SDS011;15461;41.652;9.378;2023-11-25T04:58:20;1.23;;;0.60;;
28176;SDS011;15461;41.652;9.378;2023-11-25T05:00:47;1.85;;;0.47;;
28176;SDS011;15461;41.652;9.378;2023-11-25T05:03:13;7.60;;;1.27;;
28176;SDS011;15461;41.652;9.378;2023-11-25T05:05:40;3.05;;;0.55;;
28176;SDS011;15461;41.652;9.378;2023-11-25T05:08:06;2.42;;;0.60;;
28176;SDS011;15461;41.652;9.378;2023-11-25T05:10:32;0.85;;;0.47;;
28176;SDS011;15461;41.652;9.378;2023-11-25T05:12:59;0.50;;;0.30;;
28176;SDS011;15461;41.652;9.378;2023-11-25T05:15:24;0.77;;;0.47;;
28176;SDS011;15461;41.652;9.378;2023-11-25T05:17:53;2.25;;;0.60;;
28176;SDS011;15461;41.652;9.378;2023-11-25T05:20:19;1.65;;;0.82;;
28176;SDS011;15461;41.652;9.378;2023-11-25T05:22:45;0.90;;;0.40;;
28176;SDS011;15461;41.652;9.378;2023-11-25T05:25:11;3.65;;;0.57;;
28176;SDS011;15461;41.652;9.378;2023-11-25T05:27:40;2.22;;;0.70;;
28176;SDS011;15461;41.652;9.378;2023-11-25T05:30:06;0.93;;;0.30;;
28176;SDS011;15461;41.652;9.378;2023-11-25T05:32:36;1.88;;;0.45;;
28176;SDS011;15461;41.652;9.378;2023-11-25T05:35:02;0.95;;;0.40;;
28176;SDS011;15461;41.652;9.378;2023-11-25T05:37:31;2.15;;;0.43;;
28176;SDS011;15461;41.652;9.378;2023-11-25T05:39:56;0.80;;;0.40;;
28176;SDS011;15461;41.652;9.378;2023-11-25T05:42:25;2.38;;;0.40;;
28176;SDS011;15461;41.652;9.378;2023-11-25T05:44:53;0.63;;;0.47;;
28176;SDS011;15461;41.652;9.378;2023-11-25T05:47:19;0.43;;;0.22;;
28176;SDS011;15461;41.652;9.378;2023-11-25T05:49:46;1.17;;;0.55;;
28176;SDS011;15461;41.652;9.378;2023-11-25T05:52:13;0.90;;;0.45;;
28176;SDS011;15461;41.652;9.378;2023-11-25T05:54:39;0.40;;;0.40;;
28176;SDS011;15461;41.652;9.378;2023-11-25T05:57:05;0.55;;;0.50;;
28176;SDS011;15461;41.652;9.378;2023-11-25T05:59:30;1.05;;;0.55;;
28176;SDS011;15461;41.652;9.378;2023-11-25T06:01:56;1.33;;;0.57;;
28176;SDS011;15461;41.652;9.378;2023-11-25T06:04:22;0.45;;;0.30;;
28176;SDS011;15461;41.652;9.378;2023-11-25T06:06:48;0.65;;;0.30;;
28176;SDS011;15461;41.652;9.378;2023-11-25T06:09:15;0.50;;;0.38;;
28176;SDS011;15461;41.652;9.378;2023-11-25T06:11:41;1.00;;;0.40;;
28176;SDS011;15461;41.652;9.378;2023-11-25T06:14:06;0.68;;;0.32;;
28176;SDS011;15461;41.652;9.378;2023-11-25T06:16:33;0.20;;;0.20;;
28176;SDS011;15461;41.652;9.378;2023-11-25T06:18:59;1.95;;;0.40;;
28176;SDS011;15461;41.652;9.378;2023-11-25T06:21:26;0.30;;;0.30;;
28176;SDS011;15461;41.652;9.378;2023-11-25T06:23:51;3.38;;;0.60;;
28176;SDS011;15461;41.652;9.378;2023-11-25T06:26:17;0.55;;;0.40;;
28176;SDS011;15461;41.652;9.378;2023-11-25T06:28:45;0.77;;;0.45;;
28176;SDS011;15461;41.652;9.378;2023-11-25T06:31:12;0.57;;;0.50;;
28176;SDS011;15461;41.652;9.378;2023-11-25T06:33:39;0.43;;;0.30;;
28176;SDS011;15461;41.652;9.378;2023-11-25T06:36:06;2.13;;;0.50;;
28176;SDS011;15461;41.652;9.378;2023-11-25T06:38:33;0.20;;;0.20;;
28176;SDS011;15461;41.652;9.378;2023-11-25T06:40:59;1.15;;;0.30;;
28176;SDS011;15461;41.652;9.378;2023-11-25T06:43:26;3.60;;;0.55;;
28176;SDS011;15461;41.652;9.378;2023-11-25T06:45:53;0.90;;;0.20;;
28176;SDS011;15461;41.652;9.378;2023-11-25T06:48:19;0.32;;;0.30;;
28176;SDS011;15461;41.652;9.378;2023-11-25T06:50:46;0.70;;;0.40;;
28176;SDS011;15461;41.652;9.378;2023-11-25T06:53:12;0.90;;;0.30;;
28176;SDS011;15461;41.652;9.378;2023-11-25T06:55:38;0.22;;;0.22;;
28176;SDS011;15461;41.652;9.378;2023-11-25T06:58:07;2.47;;;0.30;;
28176;SDS011;15461;41.652;9.378;2023-11-25T07:00:36;1.40;;;0.30;;
28176;SDS011;15461;41.652;9.378;2023-11-25T07:03:06;2.28;;;0.40;;
28176;SDS011;15461;41.652;9.378;2023-11-25T07:05:33;0.47;;;0.28;;
28176;SDS011;15461;41.652;9.378;2023-11-25T07:08:01;0.45;;;0.28;;
28176;SDS011;15461;41.652;9.378;2023-11-25T07:10:27;1.05;;;0.40;;
28176;SDS011;15461;41.652;9.378;2023-11-25T07:12:59;2.23;;;0.50;;
28176;SDS011;15461;41.652;9.378;2023-11-25T07:15:28;0.20;;;0.20;;
28176;SDS011;15461;41.652;9.378;2023-11-25T07:17:55;2.05;;;0.30;;
28176;SDS011;15461;41.652;9.378;2023-11-25T07:20:21;1.63;;;0.57;;
28176;SDS011;15461;41.652;9.378;2023-11-25T07:22:47;0.20;;;0.20;;
28176;SDS011;15461;41.652;9.378;2023-11-25T07:25:13;0.98;;;0.35;;
28176;SDS011;15461;41.652;9.378;2023-11-25T07:27:43;0.98;;;0.35;;
28176;SDS011;15461;41.652;9.378;2023-11-25T07:30:10;1.38;;;0.30;;
28176;SDS011;15461;41.652;9.378;2023-11-25T07:32:36;0.40;;;0.30;;
28176;SDS011;15461;41.652;9.378;2023-11-25T07:35:03;0.20;;;0.20;;
28176;SDS011;15461;41.652;9.378;2023-11-25T07:37:35;0.43;;;0.30;;
28176;SDS011;15461;41.652;9.378;2023-11-25T07:40:01;0.32;;;0.22;;
28176;SDS011;15461;41.652;9.378;2023-11-25T07:42:35;0.35;;;0.20;;
28176;SDS011;15461;41.652;9.378;2023-11-25T07:45:03;0.10;;;0.10;;
28176;SDS011;15461;41.652;9.378;2023-11-25T07:47:35;0.20;;;0.20;;
28176;SDS011;15461;41.652;9.378;2023-11-25T07:50:02;3.30;;;0.40;;
28176;SDS011;15461;41.652;9.378;2023-11-25T07:52:28;0.93;;;0.20;;
28176;SDS011;15461;41.652;9.378;2023-11-25T07:54:54;0.55;;;0.20;;
28176;SDS011;15461;41.652;9.378;2023-11-25T07:57:19;0.75;;;0.30;;
28176;SDS011;15461;41.652;9.378;2023-11-25T07:59:45;3.50;;;0.50;;
28176;SDS011;15461;41.652;9.378;2023-11-25T08:02:11;0.30;;;0.30;;
28176;SDS011;15461;41.652;9.378;2023-11-25T08:04:37;1.95;;;0.60;;
28176;SDS011;15461;41.652;9.378;2023-11-25T08:07:02;0.20;;;0.20;;
28176;SDS011;15461;41.652;9.378;2023-11-25T08:09:29;0.52;;;0.30;;
28176;SDS011;15461;41.652;9.378;2023-11-25T08:11:54;1.77;;;0.68;;
28176;SDS011;15461;41.652;9.378;2023-11-25T08:14:21;0.47;;;0.30;;
28176;SDS011;15461;41.652;9.378;2023-11-25T08:16:47;1.75;;;0.32;;
28176;SDS011;15461;41.652;9.378;2023-11-25T08:19:14;0.57;;;0.30;;
28176;SDS011;15461;41.652;9.378;2023-11-25T08:21:43;2.00;;;0.20;;
28176;SDS011;15461;41.652;9.378;2023-11-25T08:24:09;1.02;;;0.22;;
28176;SDS011;15461;41.652;9.378;2023-11-25T08:26:34;2.38;;;0.47;;
28176;SDS011;15461;41.652;9.378;2023-11-25T08:29:00;0.75;;;0.20;;
28176;SDS011;15461;41.652;9.378;2023-11-25T08:31:28;3.72;;;0.32;;
28176;SDS011;15461;41.652;9.378;2023-11-25T08:33:54;2.03;;;0.50;;
28176;SDS011;15461;41.652;9.378;2023-11-25T08:36:20;4.75;;;0.40;;
28176;SDS011;15461;41.652;9.378;2023-11-25T08:38:45;4.60;;;0.40;;
28176;SDS011;15461;41.652;9.378;2023-11-25T08:41:12;1.10;;;0.63;;
28176;SDS011;15461;41.652;9.378;2023-11-25T08:43:40;0.30;;;0.30;;
28176;SDS011;15461;41.652;9.378;2023-11-25T08:46:10;2.63;;;0.52;;
28176;SDS011;15461;41.652;9.378;2023-11-25T08:48:36;2.42;;;0.40;;
28176;SDS011;15461;41.652;9.378;2023-11-25T08:51:03;1.15;;;0.35;;
28176;SDS011;15461;41.652;9.378;2023-11-25T08:53:31;0.32;;;0.22;;
28176;SDS011;15461;41.652;9.378;2023-11-25T08:55:57;0.28;;;0.25;;
28176;SDS011;15461;41.652;9.378;2023-11-25T08:58:28;0.95;;;0.20;;
28176;SDS011;15461;41.652;9.378;2023-11-25T09:00:54;1.20;;;0.32;;
28176;SDS011;15461;41.652;9.378;2023-11-25T09:03:21;0.65;;;0.50;;
28176;SDS011;15461;41.652;9.378;2023-11-25T09:05:48;2.15;;;0.90;;
28176;SDS011;15461;41.652;9.378;2023-11-25T09:08:14;4.30;;;0.60;;
28176;SDS011;15461;41.652;9.378;2023-11-25T09:10:41;5.05;;;1.00;;
28176;SDS011;15461;41.652;9.378;2023-11-25T09:13:07;0.82;;;0.40;;
28176;SDS011;15461;41.652;9.378;2023-11-25T09:15:33;1.27;;;0.35;;
28176;SDS011;15461;41.652;9.378;2023-11-25T09:17:59;0.47;;;0.20;;
28176;SDS011;15461;41.652;9.378;2023-11-25T09:20:26;0.85;;;0.32;;
28176;SDS011;15461;41.652;9.378;2023-11-25T09:22:52;4.43;;;0.30;;
28176;SDS011;15461;41.652;9.378;2023-11-25T09:25:19;1.38;;;0.47;;
28176;SDS011;15461;41.652;9.378;2023-11-25T09:27:45;3.75;;;0.50;;
28176;SDS011;15461;41.652;9.378;2023-11-25T09:30:12;0.35;;;0.30;;
28176;SDS011;15461;41.652;9.378;2023-11-25T09:32:42;1.27;;;0.35;;
28176;SDS011;15461;41.652;9.378;2023-11-25T09:35:09;0.88;;;0.30;;
28176;SDS011;15461;41.652;9.378;2023-11-25T09:37:39;1.23;;;0.17;;
28176;SDS011;15461;41.652;9.378;2023-11-25T09:40:06;0.45;;;0.35;;
28176;SDS011;15461;41.652;9.378;2023-11-25T09:45:09;1.45;;;0.20;;
28176;SDS011;15461;41.652;9.378;2023-11-25T09:47:39;0.20;;;0.20;;
28176;SDS011;15461;41.652;9.378;2023-11-25T09:50:08;0.28;;;0.20;;
28176;SDS011;15461;41.652;9.378;2023-11-25T09:53:09;0.30;;;0.20;;
28176;SDS011;15461;41.652;9.378;2023-11-25T09:55:34;1.10;;;0.40;;
28176;SDS011;15461;41.652;9.378;2023-11-25T09:58:04;0.65;;;0.20;;
28176;SDS011;15461;41.652;9.378;2023-11-25T10:00:31;6.13;;;0.50;;
28176;SDS011;15461;41.652;9.378;2023-11-25T10:02:59;0.40;;;0.17;;
28176;SDS011;15461;41.652;9.378;2023-11-25T10:05:26;0.20;;;0.17;;
28176;SDS011;15461;41.652;9.378;2023-11-25T10:07:52;0.65;;;0.30;;
28176;SDS011;15461;41.652;9.378;2023-11-25T10:10:18;4.30;;;1.25;;
28176;SDS011;15461;41.652;9.378;2023-11-25T10:12:49;4.45;;;0.40;;
28176;SDS011;15461;41.652;9.378;2023-11-25T10:15:15;1.08;;;0.20;;
28176;SDS011;15461;41.652;9.378;2023-11-25T10:17:44;0.20;;;0.20;;
28176;SDS011;15461;41.652;9.378;2023-11-25T10:20:10;0.28;;;0.20;;
28176;SDS011;15461;41.652;9.378;2023-11-25T10:22:47;1.95;;;0.32;;
28176;SDS011;15461;41.652;9.378;2023-11-25T10:25:18;0.93;;;0.40;;
28176;SDS011;15461;41.652;9.378;2023-11-25T10:27:44;2.63;;;0.40;;
28176;SDS011;15461;41.652;9.378;2023-11-25T10:30:11;0.20;;;0.20;;
28176;SDS011;15461;41.652;9.378;2023-11-25T10:32:39;3.13;;;0.40;;
28176;SDS011;15461;41.652;9.378;2023-11-25T10:35:06;0.73;;;0.30;;
28176;SDS011;15461;41.652;9.378;2023-11-25T10:37:39;0.52;;;0.20;;
28176;SDS011;15461;41.652;9.378;2023-11-25T10:40:08;1.42;;;0.30;;
28176;SDS011;15461;41.652;9.378;2023-11-25T10:42:35;1.08;;;0.38;;
28176;SDS011;15461;41.652;9.378;2023-11-25T10:45:12;0.93;;;0.30;;
28176;SDS011;15461;41.652;9.378;2023-11-25T10:47:40;0.45;;;0.20;;
28176;SDS011;15461;41.652;9.378;2023-11-25T10:50:07;0.40;;;0.20;;
28176;SDS011;15461;41.652;9.378;2023-11-25T10:52:33;0.43;;;0.25;;
28176;SDS011;15461;41.652;9.378;2023-11-25T10:55:03;1.08;;;0.20;;
28176;SDS011;15461;41.652;9.378;2023-11-25T10:57:31;0.75;;;0.30;;
28176;SDS011;15461;41.652;9.378;2023-11-25T10:59:58;3.08;;;0.47;;
28176;SDS011;15461;41.652;9.378;2023-11-25T11:02:25;1.02;;;0.30;;
28176;SDS011;15461;41.652;9.378;2023-11-25T11:05:02;0.95;;;0.43;;
28176;SDS011;15461;41.652;9.378;2023-11-25T11:07:35;0.45;;;0.30;;
28176;SDS011;15461;41.652;9.378;2023-11-25T11:10:04;0.52;;;0.30;;
28176;SDS011;15461;41.652;9.378;2023-11-25T11:12:41;1.55;;;0.20;;
28176;SDS011;15461;41.652;9.378;2023-11-25T11:15:14;0.20;;;0.20;;
28176;SDS011;15461;41.652;9.378;2023-11-25T11:20:44;2.80;;;0.55;;
28176;SDS011;15461;41.652;9.378;2023-11-25T11:23:15;1.33;;;0.38;;
28176;SDS011;15461;41.652;9.378;2023-11-25T11:25:46;0.52;;;0.28;;
28176;SDS011;15461;41.652;9.378;2023-11-25T11:28:23;0.20;;;0.20;;
28176;SDS011;15461;41.652;9.378;2023-11-25T11:33:43;0.93;;;0.20;;
28176;SDS011;15461;41.652;9.378;2023-11-25T11:36:19;0.17;;;0.15;;
28176;SDS011;15461;41.652;9.378;2023-11-25T11:38:46;0.10;;;0.10;;
28176;SDS011;15461;41.652;9.378;2023-11-25T11:43:38;0.73;;;0.40;;
28176;SDS011;15461;41.652;9.378;2023-11-25T11:46:04;2.78;;;0.38;;
28176;SDS011;15461;41.652;9.378;2023-11-25T11:48:30;0.40;;;0.20;;
28176;SDS011;15461;41.652;9.378;2023-11-25T11:50:56;1.48;;;0.35;;
28176;SDS011;15461;41.652;9.378;2023-11-25T11:53:23;1.33;;;0.45;;
28176;SDS011;15461;41.652;9.378;2023-11-25T11:55:51;0.25;;;0.25;;
28176;SDS011;15461;41.652;9.378;2023-11-25T11:58:19;2.05;;;0.43;;
28176;SDS011;15461;41.652;9.378;2023-11-25T12:00:45;0.85;;;0.30;;
28176;SDS011;15461;41.652;9.378;2023-11-25T12:03:14;1.65;;;0.50;;
28176;SDS011;15461;41.652;9.378;2023-11-25T12:05:42;1.20;;;0.30;;
28176;SDS011;15461;41.652;9.378;2023-11-25T12:08:07;1.20;;;0.40;;
28176;SDS011;15461;41.652;9.378;2023-11-25T12:10:34;1.08;;;0.52;;
28176;SDS011;15461;41.652;9.378;2023-11-25T12:13:01;1.25;;;0.50;;
28176;SDS011;15461;41.652;9.378;2023-11-25T12:15:27;0.60;;;0.40;;
28176;SDS011;15461;41.652;9.378;2023-11-25T12:17:53;1.98;;;0.45;;
28176;SDS011;15461;41.652;9.378;2023-11-25T12:20:21;0.95;;;0.30;;
28176;SDS011;15461;41.652;9.378;2023-11-25T12:22:48;1.67;;;0.30;;
28176;SDS011;15461;41.652;9.378;2023-11-25T12:25:14;0.30;;;0.25;;
28176;SDS011;15461;41.652;9.378;2023-11-25T12:27:51;1.58;;;0.40;;
28176;SDS011;15461;41.652;9.378;2023-11-25T12:30:36;0.25;;;0.25;;
28176;SDS011;15461;41.652;9.378;2023-11-25T12:33:03;3.45;;;0.43;;
28176;SDS011;15461;41.652;9.378;2023-11-25T12:35:38;0.98;;;0.40;;
28176;SDS011;15461;41.652;9.378;2023-11-25T12:38:05;0.30;;;0.28;;
28176;SDS011;15461;41.652;9.378;2023-11-25T12:40:31;0.90;;;0.40;;
28176;SDS011;15461;41.652;9.378;2023-11-25T12:42:58;2.65;;;0.57;;
28176;SDS011;15461;41.652;9.378;2023-11-25T12:47:53;1.33;;;0.30;;
28176;SDS011;15461;41.652;9.378;2023-11-25T12:50:20;1.38;;;0.40;;
28176;SDS011;15461;41.652;9.378;2023-11-25T12:52:47;2.50;;;0.57;;
28176;SDS011;15461;41.652;9.378;2023-11-25T12:55:35;6.03;;;0.43;;
28176;SDS011;15461;41.652;9.378;2023-11-25T12:58:07;5.43;;;0.60;;
28176;SDS011;15461;41.652;9.378;2023-11-25T13:03:09;3.03;;;0.28;;
28176;SDS011;15461;41.652;9.378;2023-11-25T13:05:35;0.30;;;0.30;;
28176;SDS011;15461;41.652;9.378;2023-11-25T13:08:20;1.60;;;0.40;;
28176;SDS011;15461;41.652;9.378;2023-11-25T13:10:56;5.50;;;0.60;;
28176;SDS011;15461;41.652;9.378;2023-11-25T13:13:26;1.60;;;0.50;;
28176;SDS011;15461;41.652;9.378;2023-11-25T13:15:53;2.05;;;0.60;;
28176;SDS011;15461;41.652;9.378;2023-11-25T13:18:20;4.65;;;0.60;;
28176;SDS011;15461;41.652;9.378;2023-11-25T13:20:50;2.45;;;0.25;;
28176;SDS011;15461;41.652;9.378;2023-11-25T13:23:17;2.45;;;0.40;;
28176;SDS011;15461;41.652;9.378;2023-11-25T13:25:46;0.40;;;0.30;;
28176;SDS011;15461;41.652;9.378;2023-11-25T13:28:12;1.27;;;0.45;;
28176;SDS011;15461;41.652;9.378;2023-11-25T13:30:39;0.93;;;0.50;;
28176;SDS011;15461;41.652;9.378;2023-11-25T13:33:06;0.47;;;0.30;;
28176;SDS011;15461;41.652;9.378;2023-11-25T13:35:32;0.47;;;0.40;;
28176;SDS011;15461;41.652;9.378;2023-11-25T13:37:59;0.40;;;0.30;;
28176;SDS011;15461;41.652;9.378;2023-11-25T13:40:25;1.13;;;0.50;;
28176;SDS011;15461;41.652;9.378;2023-11-25T13:42:59;0.73;;;0.40;;
28176;SDS011;15461;41.652;9.378;2023-11-25T13:45:26;1.55;;;0.45;;
28176;SDS011;15461;41.652;9.378;2023-11-25T13:47:52;0.65;;;0.40;;
28176;SDS011;15461;41.652;9.378;2023-11-25T13:50:18;0.85;;;0.32;;
28176;SDS011;15461;41.652;9.378;2023-11-25T13:52:45;1.40;;;0.30;;
28176;SDS011;15461;41.652;9.378;2023-11-25T13:55:11;0.35;;;0.25;;
28176;SDS011;15461;41.652;9.378;2023-11-25T13:57:41;0.85;;;0.20;;
28176;SDS011;15461;41.652;9.378;2023-11-25T14:00:08;1.90;;;0.65;;
28176;SDS011;15461;41.652;9.378;2023-11-25T14:02:37;1.08;;;0.43;;
28176;SDS011;15461;41.652;9.378;2023-11-25T14:05:02;4.45;;;0.70;;
28176;SDS011;15461;41.652;9.378;2023-11-25T14:07:29;3.28;;;0.40;;
28176;SDS011;15461;41.652;9.378;2023-11-25T14:09:55;0.88;;;0.28;;
28176;SDS011;15461;41.652;9.378;2023-11-25T14:12:21;0.90;;;0.40;;
28176;SDS011;15461;41.652;9.378;2023-11-25T14:14:47;1.77;;;0.50;;
28176;SDS011;15461;41.652;9.378;2023-11-25T14:17:13;0.40;;;0.32;;
28176;SDS011;15461;41.652;9.378;2023-11-25T14:19:44;2.80;;;0.30;;
28176;SDS011;15461;41.652;9.378;2023-11-25T14:22:14;1.75;;;0.40;;
28176;SDS011;15461;41.652;9.378;2023-11-25T14:24:42;0.82;;;0.40;;
28176;SDS011;15461;41.652;9.378;2023-11-25T14:27:07;2.38;;;0.63;;
28176;SDS011;15461;41.652;9.378;2023-11-25T14:29:33;0.50;;;0.30;;
28176;SDS011;15461;41.652;9.378;2023-11-25T14:31:59;2.47;;;0.43;;
28176;SDS011;15461;41.652;9.378;2023-11-25T14:34:24;1.10;;;0.30;;
28176;SDS011;15461;41.652;9.378;2023-11-25T14:36:50;1.40;;;0.40;;
28176;SDS011;15461;41.652;9.378;2023-11-25T14:39:16;2.08;;;0.55;;
28176;SDS011;15461;41.652;9.378;2023-11-25T14:41:44;1.40;;;0.50;;
28176;SDS011;15461;41.652;9.378;2023-11-25T14:44:13;1.27;;;0.40;;
28176;SDS011;15461;41.652;9.378;2023-11-25T14:46:39;2.90;;;0.52;;
28176;SDS011;15461;41.652;9.378;2023-11-25T14:49:05;1.75;;;0.22;;
28176;SDS011;15461;41.652;9.378;2023-11-25T14:51:31;0.20;;;0.20;;
28176;SDS011;15461;41.652;9.378;2023-11-25T14:53:57;0.45;;;0.20;;
28176;SDS011;15461;41.652;9.378;2023-11-25T14:56:23;2.00;;;0.70;;
28176;SDS011;15461;41.652;9.378;2023-11-25T14:58:48;4.72;;;0.38;;
28176;SDS011;15461;41.652;9.378;2023-11-25T15:01:14;1.65;;;0.50;;
28176;SDS011;15461;41.652;9.378;2023-11-25T15:03:42;1.75;;;0.25;;
28176;SDS011;15461;41.652;9.378;2023-11-25T15:06:08;0.60;;;0.35;;